sensor_id;sensor_type;location;lat;lon;timestamp;P1;durP1;ratioP1;P2;durP2;ratioP2
3081;SDS011;1551;51.046;7.010;2023-04-24T00:01:29;2.10;;;0.80;;
3081;SDS011;1551;51.046;7.010;2023-04-24T00:04:18;2.85;;;0.90;;
3081;SDS011;1551;51.046;7.010;2023-04-24T00:07:07;1.80;;;0.70;;
3081;SDS011;1551;51.046;7.010;2023-04-24T00:09:55;1.73;;;0.67;;
3081;SDS011;1551;51.046;7.010;2023-04-24T00:12:44;2.88;;;0.90;;
3081;SDS011;1551;51.046;7.010;2023-04-24T00:15:33;2.20;;;0.85;;
3081;SDS011;1551;51.046;7.010;2023-04-24T00:18:22;2.88;;;1.05;;
3081;SDS011;1551;51.046;7.010;2023-04-24T00:21:11;2.45;;;0.90;;
3081;SDS011;1551;51.046;7.010;2023-04-24T00:24:00;2.95;;;0.98;;
3081;SDS011;1551;51.046;7.010;2023-04-24T00:26:49;2.63;;;1.10;;
3081;SDS011;1551;51.046;7.010;2023-04-24T00:29:38;4.38;;;1.10;;
3081;SDS011;1551;51.046;7.010;2023-04-24T00:32:27;5.00;;;1.40;;
3081;SDS011;1551;51.046;7.010;2023-04-24T00:35:18;2.50;;;1.10;;
3081;SDS011;1551;51.046;7.010;2023-04-24T00:38:08;2.67;;;1.30;;
3081;SDS011;1551;51.046;7.010;2023-04-24T00:40:57;2.70;;;1.27;;
3081;SDS011;1551;51.046;7.010;2023-04-24T00:43:47;3.17;;;1.33;;
3081;SDS011;1551;51.046;7.010;2023-04-24T00:46:36;2.38;;;0.93;;
3081;SDS011;1551;51.046;7.010;2023-04-24T00:49:26;2.50;;;1.20;;
3081;SDS011;1551;51.046;7.010;2023-04-24T00:52:15;2.30;;;1.00;;
3081;SDS011;1551;51.046;7.010;2023-04-24T00:55:06;2.10;;;1.10;;
3081;SDS011;1551;51.046;7.010;2023-04-24T00:57:55;2.72;;;1.10;;
3081;SDS011;1551;51.046;7.010;2023-04-24T01:00:44;3.05;;;1.30;;
3081;SDS011;1551;51.046;7.010;2023-04-24T01:03:34;2.33;;;1.08;;
3081;SDS011;1551;51.046;7.010;2023-04-24T01:06:27;2.30;;;1.20;;
3081;SDS011;1551;51.046;7.010;2023-04-24T01:09:17;2.30;;;1.10;;
3081;SDS011;1551;51.046;7.010;2023-04-24T01:12:06;2.90;;;1.30;;
3081;SDS011;1551;51.046;7.010;2023-04-24T01:14:56;4.00;;;1.10;;
3081;SDS011;1551;51.046;7.010;2023-04-24T01:17:45;2.65;;;1.20;;
3081;SDS011;1551;51.046;7.010;2023-04-24T01:20:37;1.90;;;0.90;;
3081;SDS011;1551;51.046;7.010;2023-04-24T01:23:28;2.80;;;1.30;;
3081;SDS011;1551;51.046;7.010;2023-04-24T01:26:17;3.00;;;1.48;;
3081;SDS011;1551;51.046;7.010;2023-04-24T01:29:08;2.35;;;1.25;;
3081;SDS011;1551;51.046;7.010;2023-04-24T01:31:58;3.13;;;1.70;;
3081;SDS011;1551;51.046;7.010;2023-04-24T01:34:48;2.53;;;1.30;;
3081;SDS011;1551;51.046;7.010;2023-04-24T01:37:38;2.47;;;1.30;;
3081;SDS011;1551;51.046;7.010;2023-04-24T01:40:27;2.40;;;1.20;;
3081;SDS011;1551;51.046;7.010;2023-04-24T01:43:16;5.30;;;1.77;;
3081;SDS011;1551;51.046;7.010;2023-04-24T01:46:06;4.30;;;1.90;;
3081;SDS011;1551;51.046;7.010;2023-04-24T01:48:58;3.70;;;2.03;;
3081;SDS011;1551;51.046;7.010;2023-04-24T01:51:49;3.85;;;1.88;;
3081;SDS011;1551;51.046;7.010;2023-04-24T01:54:38;5.00;;;2.30;;
3081;SDS011;1551;51.046;7.010;2023-04-24T01:57:26;3.83;;;2.47;;
3081;SDS011;1551;51.046;7.010;2023-04-24T02:00:15;3.63;;;2.33;;
3081;SDS011;1551;51.046;7.010;2023-04-24T02:03:04;4.20;;;2.40;;
3081;SDS011;1551;51.046;7.010;2023-04-24T02:05:54;3.65;;;2.80;;
3081;SDS011;1551;51.046;7.010;2023-04-24T02:08:43;4.38;;;2.70;;
3081;SDS011;1551;51.046;7.010;2023-04-24T02:11:32;5.10;;;2.47;;
3081;SDS011;1551;51.046;7.010;2023-04-24T02:14:21;4.90;;;2.70;;
3081;SDS011;1551;51.046;7.010;2023-04-24T02:17:10;4.78;;;3.10;;
3081;SDS011;1551;51.046;7.010;2023-04-24T02:20:00;4.60;;;3.40;;
3081;SDS011;1551;51.046;7.010;2023-04-24T02:22:49;4.93;;;3.63;;
3081;SDS011;1551;51.046;7.010;2023-04-24T02:25:40;6.20;;;3.95;;
3081;SDS011;1551;51.046;7.010;2023-04-24T02:28:29;6.30;;;3.90;;
3081;SDS011;1551;51.046;7.010;2023-04-24T02:31:18;5.30;;;4.10;;
3081;SDS011;1551;51.046;7.010;2023-04-24T02:34:07;5.90;;;4.55;;
3081;SDS011;1551;51.046;7.010;2023-04-24T02:36:55;8.88;;;4.70;;
3081;SDS011;1551;51.046;7.010;2023-04-24T02:39:44;7.00;;;4.80;;
3081;SDS011;1551;51.046;7.010;2023-04-24T02:42:33;5.72;;;4.50;;
3081;SDS011;1551;51.046;7.010;2023-04-24T02:45:22;7.63;;;5.18;;
3081;SDS011;1551;51.046;7.010;2023-04-24T02:48:11;7.38;;;4.82;;
3081;SDS011;1551;51.046;7.010;2023-04-24T02:51:00;6.38;;;4.75;;
3081;SDS011;1551;51.046;7.010;2023-04-24T02:53:49;7.95;;;5.72;;
3081;SDS011;1551;51.046;7.010;2023-04-24T02:56:38;8.38;;;5.13;;
3081;SDS011;1551;51.046;7.010;2023-04-24T02:59:29;5.43;;;4.32;;
3081;SDS011;1551;51.046;7.010;2023-04-24T03:02:18;6.60;;;4.60;;
3081;SDS011;1551;51.046;7.010;2023-04-24T03:05:07;6.32;;;4.75;;
3081;SDS011;1551;51.046;7.010;2023-04-24T03:07:57;9.13;;;5.78;;
3081;SDS011;1551;51.046;7.010;2023-04-24T03:10:46;7.50;;;5.05;;
3081;SDS011;1551;51.046;7.010;2023-04-24T03:13:37;6.72;;;4.60;;
3081;SDS011;1551;51.046;7.010;2023-04-24T03:16:26;7.00;;;4.90;;
3081;SDS011;1551;51.046;7.010;2023-04-24T03:19:17;7.80;;;5.50;;
3081;SDS011;1551;51.046;7.010;2023-04-24T03:22:18;7.20;;;5.35;;
3081;SDS011;1551;51.046;7.010;2023-04-24T03:25:08;8.45;;;6.22;;
3081;SDS011;1551;51.046;7.010;2023-04-24T03:27:58;6.97;;;5.50;;
3081;SDS011;1551;51.046;7.010;2023-04-24T03:30:57;9.60;;;5.90;;
3081;SDS011;1551;51.046;7.010;2023-04-24T03:33:48;10.55;;;5.88;;
3081;SDS011;1551;51.046;7.010;2023-04-24T03:36:37;8.48;;;6.60;;
3081;SDS011;1551;51.046;7.010;2023-04-24T03:39:28;7.00;;;5.72;;
3081;SDS011;1551;51.046;7.010;2023-04-24T03:42:19;8.90;;;6.60;;
3081;SDS011;1551;51.046;7.010;2023-04-24T03:45:14;9.82;;;6.60;;
3081;SDS011;1551;51.046;7.010;2023-04-24T03:48:06;8.43;;;6.20;;
3081;SDS011;1551;51.046;7.010;2023-04-24T03:50:57;8.38;;;5.18;;
3081;SDS011;1551;51.046;7.010;2023-04-24T03:53:46;6.68;;;5.65;;
3081;SDS011;1551;51.046;7.010;2023-04-24T03:56:38;10.30;;;6.50;;
3081;SDS011;1551;51.046;7.010;2023-04-24T03:59:28;8.02;;;6.40;;
3081;SDS011;1551;51.046;7.010;2023-04-24T04:02:29;7.93;;;6.40;;
3081;SDS011;1551;51.046;7.010;2023-04-24T04:05:19;10.45;;;7.20;;
3081;SDS011;1551;51.046;7.010;2023-04-24T04:08:08;8.98;;;6.40;;
3081;SDS011;1551;51.046;7.010;2023-04-24T04:10:57;10.67;;;7.63;;
3081;SDS011;1551;51.046;7.010;2023-04-24T04:13:46;8.75;;;6.85;;
3081;SDS011;1551;51.046;7.010;2023-04-24T04:16:38;7.22;;;5.90;;
3081;SDS011;1551;51.046;7.010;2023-04-24T04:19:28;8.90;;;6.45;;
3081;SDS011;1551;51.046;7.010;2023-04-24T04:22:18;8.33;;;6.43;;
3081;SDS011;1551;51.046;7.010;2023-04-24T04:25:10;6.95;;;5.78;;
3081;SDS011;1551;51.046;7.010;2023-04-24T04:28:00;7.85;;;6.25;;
3081;SDS011;1551;51.046;7.010;2023-04-24T04:30:50;10.15;;;6.28;;
3081;SDS011;1551;51.046;7.010;2023-04-24T04:33:43;8.38;;;5.22;;
3081;SDS011;1551;51.046;7.010;2023-04-24T04:36:32;6.40;;;5.40;;
3081;SDS011;1551;51.046;7.010;2023-04-24T04:39:36;10.18;;;7.10;;
3081;SDS011;1551;51.046;7.010;2023-04-24T04:42:29;6.80;;;6.10;;
3081;SDS011;1551;51.046;7.010;2023-04-24T04:45:18;8.38;;;6.50;;
3081;SDS011;1551;51.046;7.010;2023-04-24T04:48:30;8.20;;;6.40;;
3081;SDS011;1551;51.046;7.010;2023-04-24T04:51:22;8.25;;;6.22;;
3081;SDS011;1551;51.046;7.010;2023-04-24T04:54:12;9.40;;;6.15;;
3081;SDS011;1551;51.046;7.010;2023-04-24T04:57:01;7.07;;;5.65;;
3081;SDS011;1551;51.046;7.010;2023-04-24T04:59:51;7.10;;;5.30;;
3081;SDS011;1551;51.046;7.010;2023-04-24T05:02:52;6.95;;;5.28;;
3081;SDS011;1551;51.046;7.010;2023-04-24T05:05:42;7.80;;;5.10;;
3081;SDS011;1551;51.046;7.010;2023-04-24T05:08:34;6.28;;;5.53;;
3081;SDS011;1551;51.046;7.010;2023-04-24T05:11:24;7.70;;;5.82;;
3081;SDS011;1551;51.046;7.010;2023-04-24T05:14:14;7.03;;;5.40;;
3081;SDS011;1551;51.046;7.010;2023-04-24T05:17:05;8.05;;;5.30;;
3081;SDS011;1551;51.046;7.010;2023-04-24T05:19:55;6.72;;;5.28;;
3081;SDS011;1551;51.046;7.010;2023-04-24T05:22:44;8.68;;;4.80;;
3081;SDS011;1551;51.046;7.010;2023-04-24T05:25:34;8.73;;;6.20;;
3081;SDS011;1551;51.046;7.010;2023-04-24T05:28:29;7.63;;;5.20;;
3081;SDS011;1551;51.046;7.010;2023-04-24T05:31:27;6.85;;;5.55;;
3081;SDS011;1551;51.046;7.010;2023-04-24T05:34:17;8.70;;;5.30;;
3081;SDS011;1551;51.046;7.010;2023-04-24T05:37:12;6.93;;;5.20;;
3081;SDS011;1551;51.046;7.010;2023-04-24T05:40:01;9.70;;;6.90;;
3081;SDS011;1551;51.046;7.010;2023-04-24T05:42:50;7.45;;;6.10;;
3081;SDS011;1551;51.046;7.010;2023-04-24T05:45:39;6.07;;;5.20;;
3081;SDS011;1551;51.046;7.010;2023-04-24T05:48:28;7.82;;;6.20;;
3081;SDS011;1551;51.046;7.010;2023-04-24T05:51:18;6.95;;;5.85;;
3081;SDS011;1551;51.046;7.010;2023-04-24T05:54:08;7.00;;;5.10;;
3081;SDS011;1551;51.046;7.010;2023-04-24T05:56:57;6.40;;;5.18;;
3081;SDS011;1551;51.046;7.010;2023-04-24T06:00:00;5.53;;;4.82;;
3081;SDS011;1551;51.046;7.010;2023-04-24T06:02:49;9.13;;;5.20;;
3081;SDS011;1551;51.046;7.010;2023-04-24T06:05:38;7.50;;;4.90;;
3081;SDS011;1551;51.046;7.010;2023-04-24T06:08:27;8.73;;;5.80;;
3081;SDS011;1551;51.046;7.010;2023-04-24T06:11:16;9.27;;;5.35;;
3081;SDS011;1551;51.046;7.010;2023-04-24T06:14:05;5.78;;;4.65;;
3081;SDS011;1551;51.046;7.010;2023-04-24T06:17:01;6.90;;;4.80;;
3081;SDS011;1551;51.046;7.010;2023-04-24T06:19:57;8.55;;;5.28;;
3081;SDS011;1551;51.046;7.010;2023-04-24T06:22:47;4.70;;;2.97;;
3081;SDS011;1551;51.046;7.010;2023-04-24T06:25:36;5.32;;;3.70;;
3081;SDS011;1551;51.046;7.010;2023-04-24T06:28:26;6.72;;;4.68;;
3081;SDS011;1551;51.046;7.010;2023-04-24T06:31:15;6.93;;;4.03;;
3081;SDS011;1551;51.046;7.010;2023-04-24T06:34:04;5.40;;;3.63;;
3081;SDS011;1551;51.046;7.010;2023-04-24T06:36:53;6.22;;;4.50;;
3081;SDS011;1551;51.046;7.010;2023-04-24T06:39:43;6.15;;;4.15;;
3081;SDS011;1551;51.046;7.010;2023-04-24T06:42:32;6.07;;;3.70;;
3081;SDS011;1551;51.046;7.010;2023-04-24T06:45:21;4.65;;;2.80;;
3081;SDS011;1551;51.046;7.010;2023-04-24T06:48:10;4.80;;;3.50;;
3081;SDS011;1551;51.046;7.010;2023-04-24T06:50:59;4.70;;;2.70;;
3081;SDS011;1551;51.046;7.010;2023-04-24T06:53:48;4.05;;;2.30;;
3081;SDS011;1551;51.046;7.010;2023-04-24T06:56:38;6.80;;;3.20;;
3081;SDS011;1551;51.046;7.010;2023-04-24T06:59:28;5.70;;;2.53;;
3081;SDS011;1551;51.046;7.010;2023-04-24T07:02:17;2.92;;;2.00;;
3081;SDS011;1551;51.046;7.010;2023-04-24T07:05:06;4.05;;;1.90;;
3081;SDS011;1551;51.046;7.010;2023-04-24T07:07:56;3.30;;;1.80;;
3081;SDS011;1551;51.046;7.010;2023-04-24T07:10:46;3.13;;;1.50;;
3081;SDS011;1551;51.046;7.010;2023-04-24T07:13:35;2.88;;;1.50;;
3081;SDS011;1551;51.046;7.010;2023-04-24T07:16:26;3.13;;;1.70;;
3081;SDS011;1551;51.046;7.010;2023-04-24T07:19:15;3.40;;;1.80;;
3081;SDS011;1551;51.046;7.010;2023-04-24T07:22:04;2.85;;;1.50;;
3081;SDS011;1551;51.046;7.010;2023-04-24T07:24:53;3.22;;;2.00;;
3081;SDS011;1551;51.046;7.010;2023-04-24T07:27:42;4.63;;;2.00;;
3081;SDS011;1551;51.046;7.010;2023-04-24T07:30:31;3.10;;;1.80;;
3081;SDS011;1551;51.046;7.010;2023-04-24T07:33:21;3.73;;;1.80;;
3081;SDS011;1551;51.046;7.010;2023-04-24T07:36:10;4.90;;;2.60;;
3081;SDS011;1551;51.046;7.010;2023-04-24T07:39:04;3.70;;;2.30;;
3081;SDS011;1551;51.046;7.010;2023-04-24T07:41:54;4.30;;;2.37;;
3081;SDS011;1551;51.046;7.010;2023-04-24T07:44:43;5.05;;;2.50;;
3081;SDS011;1551;51.046;7.010;2023-04-24T07:47:32;3.30;;;2.10;;
3081;SDS011;1551;51.046;7.010;2023-04-24T07:50:22;3.20;;;1.95;;
3081;SDS011;1551;51.046;7.010;2023-04-24T07:53:11;3.80;;;1.80;;
3081;SDS011;1551;51.046;7.010;2023-04-24T07:56:00;4.00;;;2.00;;
3081;SDS011;1551;51.046;7.010;2023-04-24T07:58:49;2.80;;;1.80;;
3081;SDS011;1551;51.046;7.010;2023-04-24T08:01:39;3.75;;;1.73;;
3081;SDS011;1551;51.046;7.010;2023-04-24T08:04:27;3.30;;;1.92;;
3081;SDS011;1551;51.046;7.010;2023-04-24T08:07:16;4.43;;;2.00;;
3081;SDS011;1551;51.046;7.010;2023-04-24T08:10:05;3.50;;;1.80;;
3081;SDS011;1551;51.046;7.010;2023-04-24T08:12:55;4.00;;;2.10;;
3081;SDS011;1551;51.046;7.010;2023-04-24T08:15:44;3.33;;;1.80;;
3081;SDS011;1551;51.046;7.010;2023-04-24T08:18:33;4.18;;;2.00;;
3081;SDS011;1551;51.046;7.010;2023-04-24T08:21:24;3.95;;;1.90;;
3081;SDS011;1551;51.046;7.010;2023-04-24T08:24:15;4.30;;;2.20;;
3081;SDS011;1551;51.046;7.010;2023-04-24T08:27:04;3.90;;;2.10;;
3081;SDS011;1551;51.046;7.010;2023-04-24T08:29:53;3.35;;;1.77;;
3081;SDS011;1551;51.046;7.010;2023-04-24T08:32:43;3.55;;;1.73;;
3081;SDS011;1551;51.046;7.010;2023-04-24T08:35:32;2.90;;;1.58;;
3081;SDS011;1551;51.046;7.010;2023-04-24T08:38:21;3.27;;;1.80;;
3081;SDS011;1551;51.046;7.010;2023-04-24T08:41:10;2.80;;;1.67;;
3081;SDS011;1551;51.046;7.010;2023-04-24T08:44:00;3.25;;;1.92;;
3081;SDS011;1551;51.046;7.010;2023-04-24T08:46:50;5.57;;;2.50;;
3081;SDS011;1551;51.046;7.010;2023-04-24T08:49:42;4.28;;;2.70;;
3081;SDS011;1551;51.046;7.010;2023-04-24T08:52:32;4.80;;;2.47;;
3081;SDS011;1551;51.046;7.010;2023-04-24T08:55:21;3.17;;;2.15;;
3081;SDS011;1551;51.046;7.010;2023-04-24T08:58:10;3.40;;;2.10;;
3081;SDS011;1551;51.046;7.010;2023-04-24T09:01:00;5.03;;;2.80;;
3081;SDS011;1551;51.046;7.010;2023-04-24T09:03:50;4.60;;;2.60;;
3081;SDS011;1551;51.046;7.010;2023-04-24T09:06:41;4.73;;;2.90;;
3081;SDS011;1551;51.046;7.010;2023-04-24T09:09:30;6.40;;;3.60;;
3081;SDS011;1551;51.046;7.010;2023-04-24T09:12:21;8.27;;;6.10;;
3081;SDS011;1551;51.046;7.010;2023-04-24T09:15:10;5.90;;;3.60;;
3081;SDS011;1551;51.046;7.010;2023-04-24T09:17:59;10.50;;;7.72;;
3081;SDS011;1551;51.046;7.010;2023-04-24T09:21:02;5.15;;;3.35;;
3081;SDS011;1551;51.046;7.010;2023-04-24T09:24:02;5.10;;;3.80;;
3081;SDS011;1551;51.046;7.010;2023-04-24T09:26:57;5.28;;;3.70;;
3081;SDS011;1551;51.046;7.010;2023-04-24T09:29:56;5.25;;;3.90;;
3081;SDS011;1551;51.046;7.010;2023-04-24T09:32:46;5.18;;;3.60;;
3081;SDS011;1551;51.046;7.010;2023-04-24T09:35:35;5.15;;;3.47;;
3081;SDS011;1551;51.046;7.010;2023-04-24T09:38:34;5.97;;;3.83;;
3081;SDS011;1551;51.046;7.010;2023-04-24T09:41:26;5.97;;;4.10;;
3081;SDS011;1551;51.046;7.010;2023-04-24T09:44:21;5.15;;;3.50;;
3081;SDS011;1551;51.046;7.010;2023-04-24T09:47:10;5.55;;;3.78;;
3081;SDS011;1551;51.046;7.010;2023-04-24T09:49:59;6.05;;;4.00;;
3081;SDS011;1551;51.046;7.010;2023-04-24T09:52:59;5.78;;;3.75;;
3081;SDS011;1551;51.046;7.010;2023-04-24T09:55:49;7.40;;;4.45;;
3081;SDS011;1551;51.046;7.010;2023-04-24T09:58:39;8.33;;;4.90;;
3081;SDS011;1551;51.046;7.010;2023-04-24T10:01:31;6.60;;;3.80;;
3081;SDS011;1551;51.046;7.010;2023-04-24T10:04:27;8.50;;;4.80;;
3081;SDS011;1551;51.046;7.010;2023-04-24T10:07:17;7.80;;;4.40;;
3081;SDS011;1551;51.046;7.010;2023-04-24T10:10:06;8.20;;;5.30;;
3081;SDS011;1551;51.046;7.010;2023-04-24T10:12:55;10.48;;;5.20;;
3081;SDS011;1551;51.046;7.010;2023-04-24T10:15:45;6.57;;;4.68;;
3081;SDS011;1551;51.046;7.010;2023-04-24T10:18:36;7.30;;;5.47;;
3081;SDS011;1551;51.046;7.010;2023-04-24T10:21:26;10.02;;;5.45;;
3081;SDS011;1551;51.046;7.010;2023-04-24T10:24:16;9.25;;;6.20;;
3081;SDS011;1551;51.046;7.010;2023-04-24T10:27:07;10.10;;;5.47;;
3081;SDS011;1551;51.046;7.010;2023-04-24T10:29:57;7.25;;;4.75;;
3081;SDS011;1551;51.046;7.010;2023-04-24T10:32:47;8.10;;;5.22;;
3081;SDS011;1551;51.046;7.010;2023-04-24T10:35:45;6.85;;;4.88;;
3081;SDS011;1551;51.046;7.010;2023-04-24T10:38:38;8.27;;;5.20;;
3081;SDS011;1551;51.046;7.010;2023-04-24T10:41:29;8.10;;;5.38;;
3081;SDS011;1551;51.046;7.010;2023-04-24T10:44:19;7.65;;;4.70;;
3081;SDS011;1551;51.046;7.010;2023-04-24T10:47:13;7.20;;;4.60;;
3081;SDS011;1551;51.046;7.010;2023-04-24T10:50:03;8.32;;;4.85;;
3081;SDS011;1551;51.046;7.010;2023-04-24T10:53:06;7.37;;;5.07;;
3081;SDS011;1551;51.046;7.010;2023-04-24T10:56:03;7.50;;;4.40;;
3081;SDS011;1551;51.046;7.010;2023-04-24T10:58:53;6.32;;;3.97;;
3081;SDS011;1551;51.046;7.010;2023-04-24T11:01:42;5.67;;;3.30;;
3081;SDS011;1551;51.046;7.010;2023-04-24T11:04:42;7.03;;;3.10;;
3081;SDS011;1551;51.046;7.010;2023-04-24T11:11:12;7.40;;;2.95;;
3081;SDS011;1551;51.046;7.010;2023-04-24T11:14:04;9.45;;;3.42;;
3081;SDS011;1551;51.046;7.010;2023-04-24T11:16:55;6.35;;;3.10;;
3081;SDS011;1551;51.046;7.010;2023-04-24T11:19:44;9.10;;;3.40;;
3081;SDS011;1551;51.046;7.010;2023-04-24T11:22:40;6.75;;;3.10;;
3081;SDS011;1551;51.046;7.010;2023-04-24T11:25:30;10.48;;;3.45;;
3081;SDS011;1551;51.046;7.010;2023-04-24T11:28:19;5.43;;;3.10;;
3081;SDS011;1551;51.046;7.010;2023-04-24T11:34:26;9.35;;;3.67;;
3081;SDS011;1551;51.046;7.010;2023-04-24T11:37:16;6.80;;;3.45;;
3081;SDS011;1551;51.046;7.010;2023-04-24T11:40:06;10.32;;;3.67;;
3081;SDS011;1551;51.046;7.010;2023-04-24T11:42:56;5.07;;;3.07;;
3081;SDS011;1551;51.046;7.010;2023-04-24T11:45:49;9.00;;;3.95;;
3081;SDS011;1551;51.046;7.010;2023-04-24T11:48:38;5.97;;;3.72;;
3081;SDS011;1551;51.046;7.010;2023-04-24T11:51:34;9.45;;;4.43;;
3081;SDS011;1551;51.046;7.010;2023-04-24T11:54:24;8.98;;;4.20;;
3081;SDS011;1551;51.046;7.010;2023-04-24T11:57:13;8.95;;;4.13;;
3081;SDS011;1551;51.046;7.010;2023-04-24T12:00:03;9.38;;;4.85;;
3081;SDS011;1551;51.046;7.010;2023-04-24T12:03:05;5.03;;;3.30;;
3081;SDS011;1551;51.046;7.010;2023-04-24T12:06:06;9.20;;;4.00;;
3081;SDS011;1551;51.046;7.010;2023-04-24T12:08:56;6.17;;;3.77;;
3081;SDS011;1551;51.046;7.010;2023-04-24T12:11:53;7.97;;;3.90;;
3081;SDS011;1551;51.046;7.010;2023-04-24T12:14:49;7.40;;;3.75;;
3081;SDS011;1551;51.046;7.010;2023-04-24T12:17:41;8.80;;;3.90;;
3081;SDS011;1551;51.046;7.010;2023-04-24T12:20:31;8.20;;;3.80;;
3081;SDS011;1551;51.046;7.010;2023-04-24T12:23:42;7.20;;;3.50;;
3081;SDS011;1551;51.046;7.010;2023-04-24T12:26:31;6.70;;;3.65;;
3081;SDS011;1551;51.046;7.010;2023-04-24T12:29:20;5.97;;;3.83;;
3081;SDS011;1551;51.046;7.010;2023-04-24T12:32:16;8.25;;;3.22;;
3081;SDS011;1551;51.046;7.010;2023-04-24T12:35:05;5.63;;;2.90;;
3081;SDS011;1551;51.046;7.010;2023-04-24T12:37:54;5.10;;;2.60;;
3081;SDS011;1551;51.046;7.010;2023-04-24T12:40:43;5.38;;;2.75;;
3081;SDS011;1551;51.046;7.010;2023-04-24T12:43:33;4.60;;;2.40;;
3081;SDS011;1551;51.046;7.010;2023-04-24T12:46:22;6.65;;;3.20;;
3081;SDS011;1551;51.046;7.010;2023-04-24T12:49:11;5.50;;;2.85;;
3081;SDS011;1551;51.046;7.010;2023-04-24T12:52:00;6.68;;;2.97;;
3081;SDS011;1551;51.046;7.010;2023-04-24T12:54:53;4.88;;;3.10;;
3081;SDS011;1551;51.046;7.010;2023-04-24T12:57:43;5.20;;;2.97;;
3081;SDS011;1551;51.046;7.010;2023-04-24T13:00:32;4.20;;;3.00;;
3081;SDS011;1551;51.046;7.010;2023-04-24T13:03:22;8.90;;;5.00;;
3081;SDS011;1551;51.046;7.010;2023-04-24T13:06:11;7.80;;;3.40;;
3081;SDS011;1551;51.046;7.010;2023-04-24T13:09:00;8.30;;;2.80;;
3081;SDS011;1551;51.046;7.010;2023-04-24T13:11:49;5.93;;;2.88;;
3081;SDS011;1551;51.046;7.010;2023-04-24T13:14:39;5.40;;;2.80;;
3081;SDS011;1551;51.046;7.010;2023-04-24T13:17:28;5.13;;;2.70;;
3081;SDS011;1551;51.046;7.010;2023-04-24T13:20:17;5.10;;;3.00;;
3081;SDS011;1551;51.046;7.010;2023-04-24T13:23:07;4.43;;;2.63;;
3081;SDS011;1551;51.046;7.010;2023-04-24T13:25:55;6.20;;;3.40;;
3081;SDS011;1551;51.046;7.010;2023-04-24T13:28:47;7.90;;;3.00;;
3081;SDS011;1551;51.046;7.010;2023-04-24T13:31:36;6.40;;;2.80;;
3081;SDS011;1551;51.046;7.010;2023-04-24T13:34:25;5.10;;;2.95;;
3081;SDS011;1551;51.046;7.010;2023-04-24T13:37:15;5.63;;;2.67;;
3081;SDS011;1551;51.046;7.010;2023-04-24T13:40:04;5.40;;;2.90;;
3081;SDS011;1551;51.046;7.010;2023-04-24T13:42:54;4.97;;;2.60;;
3081;SDS011;1551;51.046;7.010;2023-04-24T13:45:43;6.82;;;2.83;;
3081;SDS011;1551;51.046;7.010;2023-04-24T13:48:32;5.95;;;2.67;;
3081;SDS011;1551;51.046;7.010;2023-04-24T13:51:21;5.03;;;2.90;;
3081;SDS011;1551;51.046;7.010;2023-04-24T13:54:10;5.70;;;2.78;;
3081;SDS011;1551;51.046;7.010;2023-04-24T13:56:59;5.30;;;2.90;;
3081;SDS011;1551;51.046;7.010;2023-04-24T13:59:49;6.10;;;3.00;;
3081;SDS011;1551;51.046;7.010;2023-04-24T14:02:38;6.20;;;3.13;;
3081;SDS011;1551;51.046;7.010;2023-04-24T14:05:27;6.38;;;2.60;;
3081;SDS011;1551;51.046;7.010;2023-04-24T14:08:16;5.30;;;2.67;;
3081;SDS011;1551;51.046;7.010;2023-04-24T14:11:05;6.22;;;2.60;;
3081;SDS011;1551;51.046;7.010;2023-04-24T14:13:54;5.10;;;2.55;;
3081;SDS011;1551;51.046;7.010;2023-04-24T14:16:46;4.55;;;2.60;;
3081;SDS011;1551;51.046;7.010;2023-04-24T14:19:35;7.03;;;3.20;;
3081;SDS011;1551;51.046;7.010;2023-04-24T14:22:24;5.20;;;2.90;;
3081;SDS011;1551;51.046;7.010;2023-04-24T14:25:13;6.55;;;3.10;;
3081;SDS011;1551;51.046;7.010;2023-04-24T14:28:03;4.35;;;3.10;;
3081;SDS011;1551;51.046;7.010;2023-04-24T14:30:54;5.38;;;2.60;;
3081;SDS011;1551;51.046;7.010;2023-04-24T14:33:43;5.10;;;3.08;;
3081;SDS011;1551;51.046;7.010;2023-04-24T14:36:32;6.05;;;3.00;;
3081;SDS011;1551;51.046;7.010;2023-04-24T14:39:21;7.40;;;2.83;;
3081;SDS011;1551;51.046;7.010;2023-04-24T14:42:10;5.65;;;2.80;;
3081;SDS011;1551;51.046;7.010;2023-04-24T14:44:59;5.30;;;3.50;;
3081;SDS011;1551;51.046;7.010;2023-04-24T14:47:48;5.35;;;3.35;;
3081;SDS011;1551;51.046;7.010;2023-04-24T14:50:37;5.03;;;2.50;;
3081;SDS011;1551;51.046;7.010;2023-04-24T14:53:26;5.82;;;2.92;;
3081;SDS011;1551;51.046;7.010;2023-04-24T14:56:15;5.20;;;2.63;;
3081;SDS011;1551;51.046;7.010;2023-04-24T14:59:03;6.30;;;2.70;;
3081;SDS011;1551;51.046;7.010;2023-04-24T15:01:52;5.00;;;3.20;;
3081;SDS011;1551;51.046;7.010;2023-04-24T15:04:46;5.38;;;2.75;;
3081;SDS011;1551;51.046;7.010;2023-04-24T15:07:35;4.80;;;2.40;;
3081;SDS011;1551;51.046;7.010;2023-04-24T15:10:24;6.30;;;2.90;;
3081;SDS011;1551;51.046;7.010;2023-04-24T15:13:14;5.40;;;2.65;;
3081;SDS011;1551;51.046;7.010;2023-04-24T15:16:03;4.70;;;2.90;;
3081;SDS011;1551;51.046;7.010;2023-04-24T15:18:52;5.32;;;2.80;;
3081;SDS011;1551;51.046;7.010;2023-04-24T15:21:41;4.65;;;2.72;;
3081;SDS011;1551;51.046;7.010;2023-04-24T15:24:30;4.72;;;2.50;;
3081;SDS011;1551;51.046;7.010;2023-04-24T15:27:19;5.15;;;2.50;;
3081;SDS011;1551;51.046;7.010;2023-04-24T15:30:09;4.72;;;2.10;;
3081;SDS011;1551;51.046;7.010;2023-04-24T15:32:59;5.47;;;2.60;;
3081;SDS011;1551;51.046;7.010;2023-04-24T15:35:50;4.32;;;2.30;;
3081;SDS011;1551;51.046;7.010;2023-04-24T15:38:39;6.27;;;2.77;;
3081;SDS011;1551;51.046;7.010;2023-04-24T15:41:28;5.00;;;2.42;;
3081;SDS011;1551;51.046;7.010;2023-04-24T15:44:17;5.03;;;2.63;;
3081;SDS011;1551;51.046;7.010;2023-04-24T15:47:06;3.70;;;2.80;;
3081;SDS011;1551;51.046;7.010;2023-04-24T15:49:55;6.20;;;2.78;;
3081;SDS011;1551;51.046;7.010;2023-04-24T15:52:45;6.78;;;2.90;;
3081;SDS011;1551;51.046;7.010;2023-04-24T15:55:34;5.00;;;2.60;;
3081;SDS011;1551;51.046;7.010;2023-04-24T15:58:24;3.60;;;2.65;;
3081;SDS011;1551;51.046;7.010;2023-04-24T16:01:13;4.65;;;2.63;;
3081;SDS011;1551;51.046;7.010;2023-04-24T16:04:03;4.22;;;2.70;;
3081;SDS011;1551;51.046;7.010;2023-04-24T16:06:51;5.00;;;2.50;;
3081;SDS011;1551;51.046;7.010;2023-04-24T16:09:40;26.65;;;16.88;;
3081;SDS011;1551;51.046;7.010;2023-04-24T16:12:29;6.28;;;3.20;;
3081;SDS011;1551;51.046;7.010;2023-04-24T16:15:18;4.32;;;2.58;;
3081;SDS011;1551;51.046;7.010;2023-04-24T16:18:08;5.65;;;2.85;;
3081;SDS011;1551;51.046;7.010;2023-04-24T16:20:56;5.40;;;2.80;;
3081;SDS011;1551;51.046;7.010;2023-04-24T16:23:45;4.43;;;2.53;;
3081;SDS011;1551;51.046;7.010;2023-04-24T16:26:35;5.80;;;2.70;;
3081;SDS011;1551;51.046;7.010;2023-04-24T16:29:24;5.47;;;3.90;;
3081;SDS011;1551;51.046;7.010;2023-04-24T16:32:12;5.10;;;4.00;;
3081;SDS011;1551;51.046;7.010;2023-04-24T16:35:01;3.65;;;2.30;;
3081;SDS011;1551;51.046;7.010;2023-04-24T16:37:50;5.60;;;3.10;;
3081;SDS011;1551;51.046;7.010;2023-04-24T16:40:39;3.90;;;1.88;;
3081;SDS011;1551;51.046;7.010;2023-04-24T16:43:30;4.93;;;2.15;;
3081;SDS011;1551;51.046;7.010;2023-04-24T16:46:19;6.53;;;2.10;;
3081;SDS011;1551;51.046;7.010;2023-04-24T16:49:08;5.20;;;2.20;;
3081;SDS011;1551;51.046;7.010;2023-04-24T16:51:57;5.88;;;2.65;;
3081;SDS011;1551;51.046;7.010;2023-04-24T16:54:47;4.57;;;2.38;;
3081;SDS011;1551;51.046;7.010;2023-04-24T16:57:36;3.70;;;2.10;;
3081;SDS011;1551;51.046;7.010;2023-04-24T17:00:25;4.55;;;2.00;;
3081;SDS011;1551;51.046;7.010;2023-04-24T17:03:15;5.47;;;2.50;;
3081;SDS011;1551;51.046;7.010;2023-04-24T17:06:04;4.40;;;1.80;;
3081;SDS011;1551;51.046;7.010;2023-04-24T17:08:53;5.30;;;1.95;;
3081;SDS011;1551;51.046;7.010;2023-04-24T17:11:42;4.25;;;2.25;;
3081;SDS011;1551;51.046;7.010;2023-04-24T17:14:31;3.47;;;2.00;;
3081;SDS011;1551;51.046;7.010;2023-04-24T17:17:20;3.85;;;1.92;;
3081;SDS011;1551;51.046;7.010;2023-04-24T17:20:11;3.15;;;1.95;;
3081;SDS011;1551;51.046;7.010;2023-04-24T17:23:00;4.87;;;2.30;;
3081;SDS011;1551;51.046;7.010;2023-04-24T17:25:49;10.03;;;6.30;;
3081;SDS011;1551;51.046;7.010;2023-04-24T17:28:38;16.05;;;9.30;;
3081;SDS011;1551;51.046;7.010;2023-04-24T17:31:27;22.08;;;12.75;;
3081;SDS011;1551;51.046;7.010;2023-04-24T17:34:16;17.92;;;11.48;;
3081;SDS011;1551;51.046;7.010;2023-04-24T17:37:05;10.93;;;7.18;;
3081;SDS011;1551;51.046;7.010;2023-04-24T17:39:54;4.63;;;2.60;;
3081;SDS011;1551;51.046;7.010;2023-04-24T17:42:43;3.40;;;2.00;;
3081;SDS011;1551;51.046;7.010;2023-04-24T17:45:32;4.28;;;2.13;;